Ocean Spirit of Moray — MVXF5 — position and weather

sailwx.info

Track history (hours):
 
Tides and Currents Weather Stations Pressure Air Temp Water Temp Dewpoint Dewpoint Depression Visibility Wind Speed Wind Dir Waves Ship Positions

Ocean Spirit of Moray (United Kingdom)

Ship's website: http://www.gordonstoun.org.uk/

Last reported at 2016-May-02 15:28 UTC. Time now 2016-May-03 06:52 UTC.
Position N 57°16' W 005°40'.

Length 24 m; draft 3 m.

Type: Sailing vessel. MMSI: 232007590.

Date/timePositionNaut miles runAvg speedWind from/ knotsBaromVisibWave heightAir tempDewpointWater temp
2016-May-02 15:28N 57°16' W 005°40'6 6.2
2016-May-02 14:33N 57°19' W 005°49'2 2.4
2016-May-02 13:33N 57°21' W 005°52'3 2.6
2016-May-02 12:33N 57°20' W 005°48'4 1.8
2016-May-02 10:22N 57°20' W 005°55'4 5.3
2016-May-02 09:33N 57°16' W 005°54'1 1.3
2016-May-02 08:31N 57°15' W 005°54'0 0.0
2016-May-02 07:28N 57°15' W 005°54'0 0.0
2016-May-02 06:16N 57°15' W 005°54'0 0.0
2016-May-02 05:19N 57°15' W 005°54'0 0.0
2016-May-02 04:28N 57°15' W 005°54'0 0.0
2016-May-02 03:28N 57°15' W 005°54'0 0.0
2016-May-02 02:09N 57°15' W 005°54'0 0.0
2016-May-02 01:31N 57°15' W 005°54'0 0.0
2016-May-02 00:33N 57°15' W 005°54'0 0.0
2016-May-01 23:15N 57°15' W 005°54'0 0.0
2016-May-01 22:22N 57°15' W 005°54'0 0.0
2016-May-01 21:34N 57°15' W 005°54'0 0.0
2016-May-01 20:33N 57°15' W 005°54'0 0.0
2016-May-01 19:27N 57°15' W 005°54'0 0.0
2016-May-01 18:34N 57°15' W 005°54'0 0.0
2016-May-01 17:31N 57°15' W 005°54'0 0.0
2016-May-01 16:34N 57°15' W 005°54'3 2.6
2016-May-01 15:33N 57°17' W 005°53'6 5.1
2016-May-01 14:28N 57°17' W 005°43'2 0.1
2016-Apr-30 09:30N 57°18' W 005°45'  
2016-Apr-27 11:23N 57°23' W 005°51'4 4.4
2016-Apr-27 10:25N 57°19' W 005°53'5 5.2
2016-Apr-27 09:31N 57°17' W 005°46'2 0.0
2016-Apr-25 11:28N 57°17' W 005°43'5 0.1
2016-Apr-23 09:32N 57°21' W 005°41'6 6.4
2016-Apr-23 08:33N 57°20' W 005°52'  
Track history (hours):
 
Tides and Currents Weather Stations Pressure Air Temp Water Temp Dewpoint Dewpoint Depression Visibility Wind Speed Wind Dir Waves Ship Positions

Ocean Spirit of Moray (United Kingdom)

Ship's website: http://www.gordonstoun.org.uk/

Last reported at 2016-May-02 15:28 UTC. Time now 2016-May-03 06:52 UTC.
Position N 57°16' W 005°40'.

Length 24 m; draft 3 m.

Type: Sailing vessel. MMSI: 232007590.

Date/timePositionNaut miles runAvg speedWind from/ knotsBaromVisibWave heightAir tempDewpointWater temp
2016-May-02 15:28N 57°16' W 005°40'6 6.2
2016-May-02 14:33N 57°19' W 005°49'2 2.4
2016-May-02 13:33N 57°21' W 005°52'3 2.6
2016-May-02 12:33N 57°20' W 005°48'4 1.8
2016-May-02 10:22N 57°20' W 005°55'4 5.3
2016-May-02 09:33N 57°16' W 005°54'1 1.3
2016-May-02 08:31N 57°15' W 005°54'0 0.0
2016-May-02 07:28N 57°15' W 005°54'0 0.0
2016-May-02 06:16N 57°15' W 005°54'0 0.0
2016-May-02 05:19N 57°15' W 005°54'0 0.0
2016-May-02 04:28N 57°15' W 005°54'0 0.0
2016-May-02 03:28N 57°15' W 005°54'0 0.0
2016-May-02 02:09N 57°15' W 005°54'0 0.0
2016-May-02 01:31N 57°15' W 005°54'0 0.0
2016-May-02 00:33N 57°15' W 005°54'0 0.0
2016-May-01 23:15N 57°15' W 005°54'0 0.0
2016-May-01 22:22N 57°15' W 005°54'0 0.0
2016-May-01 21:34N 57°15' W 005°54'0 0.0
2016-May-01 20:33N 57°15' W 005°54'0 0.0
2016-May-01 19:27N 57°15' W 005°54'0 0.0
2016-May-01 18:34N 57°15' W 005°54'0 0.0
2016-May-01 17:31N 57°15' W 005°54'0 0.0
2016-May-01 16:34N 57°15' W 005°54'3 2.6
2016-May-01 15:33N 57°17' W 005°53'6 5.1
2016-May-01 14:28N 57°17' W 005°43'2 0.1
2016-Apr-30 09:30N 57°18' W 005°45'  
2016-Apr-27 11:23N 57°23' W 005°51'4 4.4
2016-Apr-27 10:25N 57°19' W 005°53'5 5.2
2016-Apr-27 09:31N 57°17' W 005°46'2 0.0
2016-Apr-25 11:28N 57°17' W 005°43'5 0.1
2016-Apr-23 09:32N 57°21' W 005°41'6 6.4
2016-Apr-23 08:33N 57°20' W 005°52'  

Dump ship's entire track history